createdAt,value
2023-02-19T00:03:41.992Z,4.00
2023-02-19T00:08:49.897Z,3.80
2023-02-19T00:13:57.610Z,3.47
2023-02-19T00:19:04.081Z,3.87
2023-02-19T00:24:15.047Z,4.17
2023-02-19T00:29:21.567Z,3.53
2023-02-19T00:34:26.474Z,3.80
2023-02-19T00:39:34.134Z,3.43
2023-02-19T00:44:39.159Z,3.90
2023-02-19T00:49:44.124Z,3.67
2023-02-19T00:54:51.665Z,3.60
2023-02-19T00:59:56.676Z,3.80
2023-02-19T01:05:01.879Z,3.53
2023-02-19T01:10:13.248Z,3.50
2023-02-19T01:15:18.308Z,3.10
2023-02-19T01:20:23.232Z,3.87
2023-02-19T01:25:30.810Z,3.47
2023-02-19T01:30:37.337Z,3.50
2023-02-19T01:35:42.620Z,4.03
2023-02-19T01:40:57.725Z,2.93
2023-02-19T01:46:03.015Z,3.37
2023-02-19T01:51:12.408Z,3.97
2023-02-19T01:56:22.730Z,2.80
2023-02-19T02:01:27.773Z,3.20
2023-02-19T02:06:37.187Z,3.20
2023-02-19T02:11:49.664Z,3.60
2023-02-19T02:17:00.527Z,3.03
2023-02-19T02:22:15.377Z,2.97
2023-02-19T02:27:38.089Z,2.93
2023-02-19T02:32:53.555Z,3.03
2023-02-19T02:38:05.386Z,2.53
2023-02-19T02:43:10.715Z,2.57
2023-02-19T02:48:30.571Z,3.00
2023-02-19T02:53:52.806Z,2.73
2023-02-19T02:59:01.269Z,2.73
2023-02-19T03:04:15.465Z,2.20
2023-02-19T03:09:30.202Z,2.33
2023-02-19T03:14:54.737Z,2.03
2023-02-19T03:20:06.410Z,1.83
2023-02-19T03:25:29.188Z,1.40
2023-02-19T03:30:38.551Z,1.33
2023-02-19T03:35:51.608Z,1.40
2023-02-19T03:41:10.496Z,1.67
2023-02-19T03:46:23.414Z,1.40
2023-02-19T03:51:39.888Z,1.20
2023-02-19T03:56:52.017Z,1.10
2023-02-19T04:02:01.124Z,1.10
2023-02-19T04:07:09.433Z,1.20
2023-02-19T04:12:18.638Z,1.37
2023-02-19T04:17:30.599Z,1.30
2023-02-19T04:22:40.169Z,1.43
2023-02-19T04:27:48.856Z,1.40
2023-02-19T04:32:53.815Z,1.73
2023-02-19T04:38:01.412Z,1.70
2023-02-19T04:43:06.368Z,1.53
2023-02-19T04:48:12.117Z,1.30
2023-02-19T04:53:19.695Z,1.70
2023-02-19T04:58:24.686Z,1.00
2023-02-19T05:03:29.683Z,0.90
2023-02-19T05:08:37.503Z,0.90
2023-02-19T05:13:43.453Z,1.20
2023-02-19T05:18:49.579Z,1.10
2023-02-19T05:23:57.320Z,1.00
2023-02-19T05:29:02.624Z,0.90
2023-02-19T05:34:07.674Z,0.93
2023-02-19T05:39:16.480Z,0.93
2023-02-19T05:44:21.465Z,0.97
2023-02-19T05:49:26.992Z,0.87
2023-02-19T05:54:35.127Z,0.73
2023-02-19T05:59:40.113Z,0.70
2023-02-19T06:04:45.939Z,0.80
2023-02-19T06:09:56.125Z,0.80
2023-02-19T06:15:01.211Z,0.67
2023-02-19T06:20:06.573Z,0.80
2023-02-19T06:25:15.031Z,0.80
2023-02-19T06:30:19.998Z,0.70
2023-02-19T06:35:25.445Z,1.00
2023-02-19T06:40:33.026Z,0.90
2023-02-19T06:45:38.315Z,1.00
2023-02-19T06:50:43.301Z,1.03
2023-02-19T06:55:58.812Z,1.10
2023-02-19T07:01:03.949Z,1.17
2023-02-19T07:06:09.589Z,1.33
2023-02-19T07:11:19.409Z,1.30
2023-02-19T07:16:24.437Z,1.07
2023-02-19T07:21:32.126Z,1.10
2023-02-19T07:26:39.822Z,1.00
2023-02-19T07:31:46.220Z,1.10
2023-02-19T07:36:51.169Z,1.03
2023-02-19T07:41:58.751Z,1.10
2023-02-19T07:47:05.221Z,1.13
2023-02-19T07:52:10.110Z,1.17
2023-02-19T07:57:17.927Z,1.10
2023-02-19T08:02:36.331Z,1.00
2023-02-19T08:07:41.442Z,1.33
2023-02-19T08:13:01.697Z,1.30
2023-02-19T08:18:08.430Z,1.33
2023-02-19T08:23:15.822Z,1.10
2023-02-19T08:28:23.450Z,1.30
2023-02-19T08:33:30.878Z,1.50
2023-02-19T08:38:39.836Z,1.00
2023-02-19T08:43:47.694Z,1.73
2023-02-19T08:48:52.683Z,1.60
2023-02-19T08:53:59.703Z,1.60
2023-02-19T08:59:07.187Z,1.40
2023-02-19T09:04:19.697Z,1.40
2023-02-19T09:09:28.993Z,1.53
2023-02-19T09:14:38.019Z,1.20
2023-02-19T09:19:43.169Z,1.70
2023-02-19T09:24:49.172Z,1.57
2023-02-19T09:29:57.642Z,1.30
2023-02-19T09:35:03.331Z,1.17
2023-02-19T09:40:21.848Z,1.37
2023-02-19T09:45:30.579Z,1.23
2023-02-19T09:50:49.512Z,1.60
2023-02-19T09:55:55.660Z,1.53
2023-02-19T10:01:06.066Z,1.00
2023-02-19T10:06:23.618Z,1.13
2023-02-19T10:11:29.063Z,1.00
2023-02-19T10:16:37.356Z,1.30
2023-02-19T10:21:42.562Z,1.20
2023-02-19T10:26:47.580Z,1.60
2023-02-19T10:32:17.369Z,1.00
2023-02-19T10:37:22.510Z,1.50
2023-02-19T10:42:27.443Z,1.40
2023-02-19T10:47:36.050Z,1.13
2023-02-19T10:52:42.497Z,1.30
2023-02-19T10:57:52.655Z,1.20
2023-02-19T11:03:26.128Z,1.90
2023-02-19T11:08:34.284Z,1.60
2023-02-19T11:13:39.880Z,1.77
2023-02-19T11:18:47.685Z,1.63
2023-02-19T11:23:55.333Z,1.90
2023-02-19T11:29:01.861Z,1.60
2023-02-19T11:34:30.315Z,1.80
2023-02-19T11:39:35.952Z,1.30
2023-02-19T11:44:51.494Z,1.80
2023-02-19T11:50:06.180Z,1.83
2023-02-19T11:55:21.153Z,1.30
2023-02-19T12:00:30.249Z,2.33
2023-02-19T12:05:53.243Z,1.37
2023-02-19T12:11:22.428Z,1.40
2023-02-19T12:16:34.297Z,1.60
2023-02-19T12:22:03.881Z,1.57
2023-02-19T12:27:22.857Z,1.30
2023-02-19T12:32:52.922Z,1.93
2023-02-19T12:38:07.078Z,1.57
2023-02-19T12:43:19.869Z,1.43
2023-02-19T12:48:32.474Z,1.93
2023-02-19T12:53:45.699Z,1.67
2023-02-19T12:58:56.710Z,1.50
2023-02-19T13:04:19.050Z,3.40
2023-02-19T13:09:33.906Z,1.50
2023-02-19T13:14:44.989Z,1.37
2023-02-19T13:19:53.518Z,1.83
2023-02-19T13:25:03.680Z,1.50
2023-02-19T13:30:26.142Z,1.80
2023-02-19T13:35:59.434Z,1.37
2023-02-19T13:41:10.081Z,1.77
2023-02-19T13:46:19.545Z,1.57
2023-02-19T13:51:51.516Z,1.70
2023-02-19T13:57:28.663Z,1.30
2023-02-19T14:02:36.999Z,1.30
2023-02-19T14:07:57.964Z,1.70
2023-02-19T14:13:05.727Z,1.20
2023-02-19T14:18:43.470Z,1.93
2023-02-19T14:23:55.488Z,1.50
2023-02-19T14:29:04.428Z,2.03
2023-02-19T14:34:19.643Z,1.50
2023-02-19T14:39:29.127Z,1.43
2023-02-19T14:44:48.731Z,1.73
2023-02-19T14:50:01.071Z,1.80
2023-02-19T14:55:12.596Z,1.60
2023-02-19T15:00:29.912Z,1.70
2023-02-19T15:05:36.802Z,1.70
2023-02-19T15:10:47.062Z,1.70
2023-02-19T15:15:59.164Z,2.03
2023-02-19T15:21:08.204Z,2.30
2023-02-19T15:26:23.656Z,1.70
2023-02-19T15:31:31.501Z,1.40
2023-02-19T15:36:41.983Z,1.77
2023-02-19T15:41:51.270Z,2.10
2023-02-19T15:47:02.683Z,1.70
2023-02-19T15:52:13.834Z,1.73
2023-02-19T15:57:34.656Z,2.07
2023-02-19T16:02:43.334Z,1.87
2023-02-19T16:07:48.234Z,1.70
2023-02-19T16:13:03.617Z,1.90
2023-02-19T16:18:17.091Z,1.70
2023-02-19T16:23:25.408Z,2.03
2023-02-19T16:28:32.389Z,1.57
2023-02-19T16:33:42.165Z,2.10
2023-02-19T16:39:25.257Z,2.33
2023-02-19T16:44:35.828Z,1.60
2023-02-19T16:49:48.612Z,2.80
2023-02-19T16:54:53.682Z,2.13
2023-02-19T17:00:01.502Z,4.17
2023-02-19T17:05:09.467Z,6.77
2023-02-19T17:10:16.915Z,5.60
2023-02-19T17:15:21.974Z,2.30
2023-02-19T17:20:32.345Z,2.70
2023-02-19T17:25:37.336Z,2.60
2023-02-19T17:30:42.681Z,2.10
2023-02-19T17:35:50.294Z,1.83
2023-02-19T17:40:56.129Z,3.03
2023-02-19T17:46:01.470Z,3.90
2023-02-19T17:51:09.818Z,2.73
2023-02-19T17:56:19.529Z,2.30
2023-02-19T18:01:25.158Z,2.07
2023-02-19T18:06:33.091Z,1.90
2023-02-19T18:11:38.149Z,2.03
2023-02-19T18:16:50.283Z,2.37
2023-02-19T18:21:58.273Z,2.60
2023-02-19T18:27:06.078Z,2.30
2023-02-19T18:32:11.213Z,2.30
2023-02-19T18:37:19.231Z,2.80
2023-02-19T18:42:24.923Z,2.17
2023-02-19T18:47:30.112Z,2.63
2023-02-19T18:52:37.836Z,2.33
2023-02-19T18:57:44.187Z,2.87
2023-02-19T19:02:52.179Z,3.00
2023-02-19T19:08:01.965Z,2.23
2023-02-19T19:13:08.243Z,3.23
2023-02-19T19:18:13.870Z,4.13
2023-02-19T19:23:22.276Z,2.77
2023-02-19T19:28:30.221Z,2.30
2023-02-19T19:33:36.126Z,2.43
2023-02-19T19:38:44.508Z,2.43
2023-02-19T19:43:55.453Z,3.60
2023-02-19T19:49:01.588Z,3.23
2023-02-19T19:54:10.638Z,2.50
2023-02-19T19:59:17.894Z,3.00
2023-02-19T20:04:25.494Z,3.40
2023-02-19T20:09:37.511Z,3.50
2023-02-19T20:14:46.410Z,3.17
2023-02-19T20:19:52.119Z,3.80
2023-02-19T20:25:02.021Z,3.20
2023-02-19T20:30:11.374Z,3.57
2023-02-19T20:35:18.146Z,4.90
2023-02-19T20:40:30.597Z,3.30
2023-02-19T20:45:35.784Z,4.07
2023-02-19T20:50:43.282Z,2.80
2023-02-19T20:55:51.292Z,2.83
2023-02-19T21:00:56.764Z,4.27
2023-02-19T21:06:01.809Z,5.43
2023-02-19T21:11:10.565Z,4.47
2023-02-19T21:16:16.503Z,4.60
2023-02-19T21:21:25.360Z,4.30
2023-02-19T21:26:39.485Z,3.97
2023-02-19T21:31:45.926Z,3.93
2023-02-19T21:36:52.937Z,3.63
2023-02-19T21:42:00.921Z,3.70
2023-02-19T21:47:05.914Z,3.63
2023-02-19T21:52:13.566Z,4.70
2023-02-19T21:57:22.573Z,4.03
2023-02-19T22:02:27.643Z,3.50
2023-02-19T22:07:35.447Z,3.93
2023-02-19T22:12:44.050Z,3.40
2023-02-19T22:17:49.015Z,4.27
2023-02-19T22:22:53.954Z,3.40
2023-02-19T22:28:01.615Z,3.43
2023-02-19T22:33:07.065Z,3.87
2023-02-19T22:38:12.147Z,3.63
2023-02-19T22:43:22.533Z,3.83
2023-02-19T22:48:30.156Z,3.90
2023-02-19T22:53:35.528Z,4.93
2023-02-19T22:58:43.409Z,4.23
2023-02-19T23:03:50.274Z,3.70
2023-02-19T23:08:55.670Z,4.27
2023-02-19T23:14:04.004Z,4.60
2023-02-19T23:19:11.751Z,4.10
2023-02-19T23:24:17.618Z,4.80
2023-02-19T23:29:27.352Z,3.93
2023-02-19T23:34:32.505Z,3.70
2023-02-19T23:39:37.499Z,3.63
2023-02-19T23:44:45.621Z,3.20
2023-02-19T23:49:52.568Z,3.47
2023-02-19T23:54:58.872Z,4.03
